Terminal Aerodrome Forecast
Issued by NWS

Home | Current Version | Previous Version | Text Only | Print | Product List | Glossary On
Versions: 1 2 3 4 5 6 7 8 9 10 11 12 13 14 15 16 17 18 19 20 21 22
000
FTUS44 KEWX 162300
TAFSSF
TAF
KSSF 162322Z 1700/1724 13011KT P6SM FEW050 SCT070 BKN100
     FM170700 09005KT P6SM BKN025
     FM171400 12005KT P6SM -SHRA BKN020 BKN040
     FM171800 14010KT P6SM BKN040 PROB30 1718/1724 5SM TSRA
      BKN040CB=

USA.gov is the U.S. government's official web portal to all federal, state and local government web resources and services.